Time;durP1;ratioP1;P1;durP2;ratioP2;P2;SDS_P1;SDS_P2;PMS_P1;PMS_P2;Temp;Humidity;BMP_temperature;BMP_pressure;BME280_temperature;BME280_humidity;BME280_pressure;Samples;Min_cycle;Max_cycle;Signal;HPM_P1;HPM_P2
2021/08/05 00:02:21;;;;;;;2.40;2.20;;;18.10;99.90;;;;;;5036845;28;20239;-69
2021/08/05 00:04:48;;;;;;;3.88;1.80;;;18.10;99.90;;;;;;5036642;28;20210;-68
2021/08/05 00:07:15;;;;;;;2.60;2.40;;;18.00;99.90;;;;;;5036594;28;20228;-69
2021/08/05 00:09:44;;;;;;;2.05;1.95;;;18.00;99.90;;;;;;5036476;28;20749;-69
2021/08/05 00:12:11;;;;;;;2.25;1.90;;;18.10;99.90;;;;;;5036665;28;20210;-69
2021/08/05 00:14:39;;;;;;;3.80;2.15;;;18.10;99.90;;;;;;5036603;28;20200;-69
2021/08/05 00:17:06;;;;;;;2.38;2.17;;;18.10;99.90;;;;;;5036011;28;20204;-69
2021/08/05 00:19:33;;;;;;;2.28;2.00;;;18.20;99.90;;;;;;5036578;28;20209;-69
2021/08/05 00:22:00;;;;;;;2.22;2.08;;;18.30;99.90;;;;;;5036426;28;20208;-69
2021/08/05 00:24:27;;;;;;;2.10;1.90;;;18.20;99.90;;;;;;5036479;28;20582;-69
2021/08/05 00:26:55;;;;;;;1.95;1.85;;;18.20;99.90;;;;;;5036167;28;20228;-69
2021/08/05 00:29:22;;;;;;;2.83;2.20;;;18.20;99.90;;;;;;5036652;28;20238;-69
2021/08/05 00:31:49;;;;;;;2.22;2.03;;;18.20;99.90;;;;;;5034952;28;20226;-69
2021/08/05 00:34:16;;;;;;;2.17;2.00;;;18.10;99.90;;;;;;5036036;28;20607;-69
2021/08/05 00:36:43;;;;;;;2.80;2.30;;;18.10;99.90;;;;;;5035727;28;20223;-68
2021/08/05 00:39:10;;;;;;;2.35;1.73;;;18.00;99.90;;;;;;5036825;28;20228;-69
2021/08/05 00:41:36;;;;;;;2.47;2.28;;;18.00;99.90;;;;;;5036126;28;20207;-69
2021/08/05 00:44:05;;;;;;;2.05;1.90;;;18.00;99.90;;;;;;5036060;28;20311;-69
2021/08/05 00:46:32;;;;;;;1.90;1.80;;;18.00;99.90;;;;;;5035865;28;20224;-69
2021/08/05 00:48:59;;;;;;;3.80;2.50;;;18.00;99.90;;;;;;5035611;28;20714;-69
2021/08/05 00:51:26;;;;;;;2.17;1.98;;;18.00;99.90;;;;;;5035912;28;20203;-69
2021/08/05 00:53:52;;;;;;;2.38;1.95;;;17.90;99.90;;;;;;5035922;28;20561;-69
2021/08/05 00:56:19;;;;;;;3.45;2.30;;;17.90;99.90;;;;;;5035694;28;20294;-69
2021/08/05 00:58:46;;;;;;;2.97;2.60;;;17.90;99.90;;;;;;5035789;28;20226;-69
2021/08/05 01:01:17;;;;;;;2.20;2.00;;;17.80;99.90;;;;;;5035652;28;20206;-69
2021/08/05 01:03:46;;;;;;;2.33;2.13;;;17.90;99.90;;;;;;5035672;28;20218;-69
2021/08/05 01:06:21;;;;;;;3.05;2.33;;;17.90;99.90;;;;;;5035307;28;20753;-69
2021/08/05 01:08:55;;;;;;;2.67;2.35;;;17.80;99.90;;;;;;5035660;28;20228;-69
2021/08/05 01:11:26;;;;;;;2.72;2.53;;;17.80;99.90;;;;;;5035608;28;20200;-69
2021/08/05 01:13:56;;;;;;;3.00;2.10;;;17.90;99.90;;;;;;5035522;28;20290;-69
2021/08/05 01:16:30;;;;;;;1.90;1.80;;;17.90;99.90;;;;;;5035309;28;20215;-69
2021/08/05 01:19:02;;;;;;;2.70;2.50;;;17.80;99.90;;;;;;5035431;28;20310;-69
2021/08/05 01:21:40;;;;;;;2.17;2.03;;;17.80;99.90;;;;;;5035265;28;20208;-69
2021/08/05 01:24:08;;;;;;;2.17;1.98;;;17.90;99.90;;;;;;5035339;28;20210;-69
2021/08/05 01:26:59;;;;;;;2.30;2.05;;;17.90;99.90;;;;;;5034754;28;20226;-69
2021/08/05 01:29:27;;;;;;;2.47;2.28;;;17.80;99.90;;;;;;5034933;28;20582;-69
2021/08/05 01:31:55;;;;;;;2.10;1.85;;;17.80;99.90;;;;;;5035222;28;20200;-69
2021/08/05 01:34:23;;;;;;;2.75;2.40;;;17.80;99.90;;;;;;5035102;28;20607;-69
2021/08/05 01:36:51;;;;;;;2.13;2.00;;;17.80;99.90;;;;;;5034920;28;20207;-70
2021/08/05 01:39:18;;;;;;;2.40;2.20;;;17.80;99.90;;;;;;5034689;28;20702;-69
2021/08/05 01:41:47;;;;;;;2.22;2.00;;;17.70;99.90;;;;;;5034778;28;20688;-68
2021/08/05 01:44:17;;;;;;;2.90;2.13;;;17.70;99.90;;;;;;5034581;28;20204;-69
2021/08/05 01:46:44;;;;;;;2.72;2.17;;;17.70;99.90;;;;;;5034844;28;20641;-69
2021/08/05 01:49:12;;;;;;;3.08;2.25;;;17.70;99.90;;;;;;5034860;28;20577;-69
2021/08/05 01:51:41;;;;;;;2.60;2.40;;;17.70;99.90;;;;;;5034778;28;20199;-69
2021/08/05 01:54:08;;;;;;;2.35;1.88;;;17.70;99.90;;;;;;5034763;28;20295;-68
2021/08/05 01:56:35;;;;;;;2.45;2.25;;;17.70;99.90;;;;;;5034588;28;20290;-68
2021/08/05 01:59:02;;;;;;;2.20;2.00;;;17.70;99.90;;;;;;5034330;28;20314;-69
2021/08/05 02:01:30;;;;;;;2.97;2.60;;;17.70;99.90;;;;;;5034598;28;20204;-69
2021/08/05 02:04:09;;;;;;;2.83;2.33;;;17.60;99.90;;;;;;5034740;28;20662;-69
2021/08/05 02:06:41;;;;;;;2.28;2.03;;;17.50;99.90;;;;;;5034409;28;20262;-68
2021/08/05 02:09:13;;;;;;;2.55;1.95;;;17.50;99.90;;;;;;5034493;28;20227;-69
2021/08/05 02:11:44;;;;;;;2.95;2.17;;;17.50;99.90;;;;;;5034478;28;20208;-69
2021/08/05 02:14:14;;;;;;;2.10;1.90;;;17.50;99.90;;;;;;5034380;28;20204;-69
2021/08/05 02:16:45;;;;;;;5.25;2.13;;;17.50;99.90;;;;;;5033913;28;20227;-69
2021/08/05 02:19:13;;;;;;;2.05;1.90;;;17.50;99.90;;;;;;5034297;28;20229;-69
2021/08/05 02:21:42;;;;;;;1.77;1.60;;;17.60;99.90;;;;;;5034491;28;20223;-69
2021/08/05 02:24:10;;;;;;;2.28;1.80;;;17.50;99.90;;;;;;5034205;28;20215;-69
2021/08/05 02:26:39;;;;;;;3.25;2.00;;;17.60;99.90;;;;;;5033927;28;20208;-69
2021/08/05 02:29:06;;;;;;;2.85;1.90;;;17.60;99.90;;;;;;5034093;28;20228;-69
2021/08/05 02:31:36;;;;;;;2.28;2.08;;;17.60;99.90;;;;;;5034056;28;20208;-69
2021/08/05 02:34:06;;;;;;;3.08;2.78;;;17.60;99.90;;;;;;5034090;28;20574;-69
2021/08/05 02:36:34;;;;;;;1.95;1.83;;;17.60;99.90;;;;;;5033990;28;20216;-69
2021/08/05 02:39:01;;;;;;;2.58;2.17;;;17.50;99.90;;;;;;5033641;28;20240;-69
2021/08/05 02:41:29;;;;;;;3.58;2.10;;;17.40;99.90;;;;;;5033913;28;20204;-69
2021/08/05 02:43:57;;;;;;;1.77;1.67;;;17.40;99.90;;;;;;5033894;28;20199;-69
2021/08/05 02:46:25;;;;;;;1.85;1.75;;;17.40;99.90;;;;;;5033513;28;20210;-69
2021/08/05 02:48:54;;;;;;;2.08;1.88;;;17.50;99.90;;;;;;5033738;28;20232;-69
2021/08/05 02:51:23;;;;;;;1.83;1.67;;;17.50;99.90;;;;;;5033759;28;20208;-69
2021/08/05 02:53:50;;;;;;;2.22;2.00;;;17.50;99.90;;;;;;5033732;28;20730;-69
2021/08/05 02:56:17;;;;;;;2.55;2.10;;;17.50;99.90;;;;;;5032895;28;20208;-69
2021/08/05 02:58:45;;;;;;;2.30;2.10;;;17.50;99.90;;;;;;5033666;28;20315;-69
2021/08/05 03:01:12;;;;;;;1.95;1.80;;;17.50;99.90;;;;;;5033743;28;20658;-69
2021/08/05 03:03:39;;;;;;;2.05;1.90;;;17.50;99.90;;;;;;5033840;28;20226;-69
2021/08/05 03:06:07;;;;;;;2.33;1.90;;;17.40;99.90;;;;;;5033258;28;20207;-68
2021/08/05 03:08:40;;;;;;;2.45;2.25;;;17.40;99.90;;;;;;5033382;28;20232;-69
2021/08/05 03:11:07;;;;;;;2.35;1.88;;;17.30;99.90;;;;;;5033570;28;20230;-69
2021/08/05 03:13:34;;;;;;;2.22;1.90;;;17.30;99.90;;;;;;5033523;28;20572;-69
2021/08/05 03:16:01;;;;;;;2.25;2.05;;;17.30;99.90;;;;;;5033073;28;20212;-69
2021/08/05 03:18:27;;;;;;;2.00;1.85;;;17.30;99.90;;;;;;5033310;28;20785;-69
2021/08/05 03:20:54;;;;;;;1.40;1.30;;;17.20;99.90;;;;;;5033530;28;20212;-69
2021/08/05 03:23:21;;;;;;;1.90;1.70;;;17.20;99.90;;;;;;5033313;28;20211;-69
2021/08/05 03:25:49;;;;;;;2.53;2.08;;;17.00;99.90;;;;;;5033274;28;20207;-69
2021/08/05 03:28:16;;;;;;;2.20;2.00;;;17.00;99.90;;;;;;5033037;28;20235;-69
2021/08/05 03:30:43;;;;;;;2.80;2.15;;;16.90;99.90;;;;;;5033220;28;20685;-69
2021/08/05 03:33:09;;;;;;;2.65;2.05;;;16.90;99.90;;;;;;5033375;28;20204;-69
2021/08/05 03:35:36;;;;;;;2.78;2.45;;;16.90;99.90;;;;;;5033031;28;20290;-69
2021/08/05 03:38:03;;;;;;;2.60;2.17;;;16.90;99.90;;;;;;5032964;28;20222;-69
2021/08/05 03:40:30;;;;;;;2.28;2.10;;;16.90;99.90;;;;;;5033050;28;20295;-69
2021/08/05 03:42:58;;;;;;;2.95;2.30;;;16.90;99.90;;;;;;5033628;28;20203;-69
2021/08/05 03:45:25;;;;;;;3.17;2.67;;;16.90;99.90;;;;;;5033033;28;20204;-69
2021/08/05 03:47:52;;;;;;;1.85;1.75;;;16.90;99.90;;;;;;5032935;28;20235;-69
2021/08/05 03:50:19;;;;;;;2.00;1.65;;;16.90;99.90;;;;;;5033169;28;20207;-69
2021/08/05 03:52:45;;;;;;;2.30;2.15;;;17.00;99.90;;;;;;5033173;28;20207;-69
2021/08/05 03:55:14;;;;;;;3.47;2.50;;;16.90;99.90;;;;;;5033255;28;20215;-69
2021/08/05 03:57:41;;;;;;;2.30;2.10;;;16.90;99.90;;;;;;5033032;28;20219;-69
2021/08/05 04:00:11;;;;;;;2.88;2.58;;;16.90;99.90;;;;;;5032933;28;20566;-69
2021/08/05 04:02:38;;;;;;;2.70;2.05;;;16.80;99.90;;;;;;5033251;28;20208;-69
2021/08/05 04:05:05;;;;;;;2.40;2.20;;;16.80;99.90;;;;;;5033092;28;20204;-69
2021/08/05 04:07:32;;;;;;;2.25;2.05;;;16.80;99.90;;;;;;5035952;28;20234;-69
2021/08/05 04:09:59;;;;;;;2.20;2.00;;;16.90;99.90;;;;;;5036796;28;20282;-69
2021/08/05 04:12:26;;;;;;;2.60;2.15;;;16.90;99.90;;;;;;5036721;28;20570;-69
2021/08/05 04:14:53;;;;;;;2.22;1.77;;;16.90;99.90;;;;;;5036478;28;20204;-69
2021/08/05 04:17:21;;;;;;;2.55;2.13;;;16.90;99.90;;;;;;5036373;28;20225;-69
2021/08/05 04:19:48;;;;;;;3.13;2.15;;;16.90;99.90;;;;;;5036782;28;20208;-69
2021/08/05 04:22:15;;;;;;;2.58;2.00;;;16.90;99.90;;;;;;5036493;28;20207;-69
2021/08/05 04:24:41;;;;;;;2.72;2.22;;;16.80;99.90;;;;;;5036454;28;20580;-69
2021/08/05 04:27:08;;;;;;;2.78;2.40;;;16.70;99.90;;;;;;5036082;28;20200;-69
2021/08/05 04:29:35;;;;;;;2.85;2.40;;;16.70;99.90;;;;;;5036141;28;20762;-68
2021/08/05 04:32:02;;;;;;;3.47;2.47;;;16.70;99.90;;;;;;5036241;28;20239;-68
2021/08/05 04:34:30;;;;;;;2.85;2.50;;;16.70;99.90;;;;;;5036285;28;20565;-69
2021/08/05 04:36:57;;;;;;;2.65;2.45;;;16.80;99.90;;;;;;5036261;28;20227;-69
2021/08/05 04:39:24;;;;;;;3.42;2.30;;;16.90;99.90;;;;;;5035861;28;20314;-68
2021/08/05 04:41:51;;;;;;;2.47;2.28;;;16.90;99.90;;;;;;5036311;28;20214;-69
2021/08/05 04:44:17;;;;;;;2.78;2.45;;;17.00;99.90;;;;;;5036108;28;20208;-68
2021/08/05 04:46:44;;;;;;;2.25;2.15;;;17.00;99.90;;;;;;5035953;28;20581;-69
2021/08/05 04:49:11;;;;;;;2.80;2.60;;;17.00;99.90;;;;;;5035909;28;20228;-69
2021/08/05 04:51:39;;;;;;;3.10;2.30;;;17.20;99.90;;;;;;5035760;28;20666;-69
2021/08/05 04:54:06;;;;;;;2.30;2.10;;;17.20;99.90;;;;;;5035898;28;20294;-69
2021/08/05 04:56:33;;;;;;;2.75;2.55;;;17.30;99.90;;;;;;5035715;28;20204;-69
2021/08/05 04:59:00;;;;;;;2.75;2.55;;;17.20;99.90;;;;;;5035729;28;20224;-69
2021/08/05 05:01:27;;;;;;;2.22;2.00;;;17.20;99.90;;;;;;5035997;28;20208;-69
2021/08/05 05:03:54;;;;;;;2.70;2.50;;;17.30;99.90;;;;;;5035494;28;20215;-69
2021/08/05 05:06:21;;;;;;;2.50;2.30;;;17.20;99.90;;;;;;5035521;28;20207;-69
2021/08/05 05:08:49;;;;;;;3.05;2.60;;;17.20;99.90;;;;;;5035826;28;20586;-69
2021/08/05 05:11:16;;;;;;;2.65;2.40;;;17.10;99.90;;;;;;5035583;28;20210;-69
2021/08/05 05:13:43;;;;;;;2.95;2.65;;;17.10;99.90;;;;;;5035517;28;20694;-68
2021/08/05 05:16:10;;;;;;;2.92;2.70;;;17.00;99.90;;;;;;5035266;28;20298;-68
2021/08/05 05:18:37;;;;;;;3.78;2.95;;;17.00;99.90;;;;;;5034691;28;20220;-69
2021/08/05 05:21:04;;;;;;;3.70;3.17;;;16.90;99.90;;;;;;5035278;28;20208;-69
2021/08/05 05:23:31;;;;;;;3.20;2.90;;;17.00;99.90;;;;;;5035359;28;20206;-69
2021/08/05 05:26:00;;;;;;;3.75;3.15;;;17.00;99.90;;;;;;5035074;28;20293;-69
2021/08/05 05:28:29;;;;;;;3.00;2.63;;;17.00;99.90;;;;;;5035099;28;20580;-69
2021/08/05 05:30:56;;;;;;;3.10;2.80;;;17.00;99.90;;;;;;5035545;28;20585;-69
2021/08/05 05:33:24;;;;;;;3.38;2.78;;;17.10;99.90;;;;;;5035212;28;20302;-69
2021/08/05 05:35:51;;;;;;;3.20;2.80;;;17.00;99.90;;;;;;5034878;28;20200;-69
2021/08/05 05:38:18;;;;;;;2.88;2.60;;;17.10;99.90;;;;;;5035006;28;20222;-69
2021/08/05 05:40:46;;;;;;;2.80;2.50;;;17.20;99.90;;;;;;5034832;28;20211;-69
2021/08/05 05:43:15;;;;;;;4.57;3.10;;;17.20;99.90;;;;;;5034976;28;20299;-69
2021/08/05 05:45:43;;;;;;;3.08;2.88;;;17.30;99.90;;;;;;5034829;28;20207;-69
2021/08/05 05:48:10;;;;;;;3.67;2.42;;;17.30;99.90;;;;;;5034650;28;20315;-69
2021/08/05 05:50:38;;;;;;;3.30;2.67;;;17.40;99.90;;;;;;5034987;28;20314;-69
2021/08/05 05:53:06;;;;;;;3.10;2.83;;;17.50;99.90;;;;;;5034692;28;20688;-69
2021/08/05 05:55:33;;;;;;;2.97;2.50;;;17.60;99.90;;;;;;5034525;28;20208;-69
2021/08/05 05:58:00;;;;;;;3.30;3.00;;;17.60;99.90;;;;;;5035228;28;20219;-69
2021/08/05 06:00:28;;;;;;;2.75;2.40;;;17.70;99.90;;;;;;5034665;28;20200;-69
2021/08/05 06:02:55;;;;;;;3.05;2.70;;;17.80;99.90;;;;;;5034591;28;20211;-69
2021/08/05 06:05:22;;;;;;;2.90;2.60;;;17.80;99.90;;;;;;5034311;28;20210;-68
2021/08/05 06:07:51;;;;;;;3.50;2.80;;;17.70;99.90;;;;;;5034284;28;20227;-69
2021/08/05 06:10:19;;;;;;;3.05;2.75;;;17.70;99.90;;;;;;5034512;28;20299;-69
2021/08/05 06:12:47;;;;;;;3.38;2.78;;;17.70;99.90;;;;;;5034222;28;20208;-69
2021/08/05 06:15:15;;;;;;;2.20;2.00;;;17.70;99.90;;;;;;5034002;28;20208;-69
2021/08/05 06:17:45;;;;;;;2.90;2.70;;;17.70;99.90;;;;;;5034365;28;20237;-69
2021/08/05 06:20:14;;;;;;;2.72;2.53;;;17.70;99.90;;;;;;5034330;28;20207;-69
2021/08/05 06:22:42;;;;;;;2.95;2.40;;;17.70;99.90;;;;;;5034260;28;20204;-69
2021/08/05 06:25:10;;;;;;;5.38;2.67;;;17.70;99.90;;;;;;5034064;28;20251;-69
2021/08/05 06:27:38;;;;;;;3.00;2.70;;;17.70;99.90;;;;;;5034047;28;20230;-69
2021/08/05 06:30:06;;;;;;;2.90;2.50;;;17.80;99.90;;;;;;5034115;28;20315;-69
2021/08/05 06:32:33;;;;;;;2.47;2.28;;;17.80;99.90;;;;;;5034085;28;20200;-69
2021/08/05 06:35:01;;;;;;;2.60;2.40;;;17.80;99.90;;;;;;5033807;28;20295;-69
2021/08/05 06:37:28;;;;;;;3.63;3.03;;;17.80;99.90;;;;;;5033850;28;20793;-69
2021/08/05 06:39:55;;;;;;;2.30;2.10;;;17.90;99.90;;;;;;5034004;28;20200;-69
2021/08/05 06:42:22;;;;;;;2.90;2.60;;;18.00;99.90;;;;;;5033901;28;20295;-69
2021/08/05 06:44:49;;;;;;;4.22;2.50;;;18.00;99.90;;;;;;5033681;28;20686;-69
2021/08/05 06:47:16;;;;;;;2.63;2.35;;;17.90;99.90;;;;;;5033714;28;20236;-69
2021/08/05 06:49:43;;;;;;;2.88;2.33;;;18.00;99.90;;;;;;5033465;28;20224;-69
2021/08/05 06:52:11;;;;;;;2.53;2.33;;;18.10;99.90;;;;;;5033775;28;20601;-69
2021/08/05 06:54:38;;;;;;;2.60;2.40;;;18.20;99.90;;;;;;5033789;28;20611;-69
2021/08/05 06:57:05;;;;;;;3.83;2.35;;;18.40;99.90;;;;;;5033585;28;20210;-69
2021/08/05 06:59:32;;;;;;;3.63;2.75;;;18.40;99.90;;;;;;5033415;28;20792;-69
2021/08/05 07:01:59;;;;;;;2.40;2.17;;;18.50;99.90;;;;;;5033571;28;20295;-69
2021/08/05 07:04:26;;;;;;;2.60;2.15;;;18.60;99.90;;;;;;5033650;28;20282;-69
2021/08/05 07:06:53;;;;;;;2.45;2.20;;;18.60;99.90;;;;;;5033455;28;20571;-69
2021/08/05 07:09:21;;;;;;;3.35;2.60;;;18.90;99.90;;;;;;5033191;28;20691;-69
2021/08/05 07:11:48;;;;;;;3.05;2.75;;;19.10;99.90;;;;;;5033535;28;20211;-69
2021/08/05 07:14:15;;;;;;;2.20;2.00;;;19.10;99.90;;;;;;5033666;28;20204;-69
2021/08/05 07:16:42;;;;;;;2.50;2.30;;;19.20;99.90;;;;;;5032963;28;20536;-69
2021/08/05 07:19:08;;;;;;;3.17;2.30;;;19.30;99.90;;;;;;5033470;28;20830;-69
2021/08/05 07:21:35;;;;;;;2.43;2.20;;;19.50;99.90;;;;;;5033425;28;20531;-69
2021/08/05 07:24:02;;;;;;;2.53;2.33;;;19.70;99.90;;;;;;5033487;28;20451;-69
2021/08/05 07:26:30;;;;;;;3.00;2.80;;;19.80;99.90;;;;;;5033491;28;20455;-69
2021/08/05 07:28:57;;;;;;;3.33;3.00;;;19.90;99.90;;;;;;5033103;28;20572;-69
2021/08/05 07:31:24;;;;;;;2.20;2.00;;;19.90;99.90;;;;;;5033355;28;20474;-69
2021/08/05 07:33:54;;;;;;;3.00;2.70;;;20.00;99.90;;;;;;5033397;28;20444;-69
2021/08/05 07:36:21;;;;;;;2.20;2.00;;;20.00;99.90;;;;;;5033184;28;20450;-69
2021/08/05 07:38:47;;;;;;;2.40;2.20;;;20.10;99.90;;;;;;5033305;28;20471;-69
2021/08/05 07:41:15;;;;;;;2.13;1.97;;;20.20;99.90;;;;;;5034676;28;20537;-69
2021/08/05 07:43:43;;;;;;;2.43;2.30;;;20.30;99.90;;;;;;5037161;28;20445;-69
2021/08/05 07:46:10;;;;;;;2.57;2.27;;;20.30;99.90;;;;;;5036811;28;20978;-69
2021/08/05 07:48:36;;;;;;;1.93;1.83;;;20.50;99.90;;;;;;5037054;28;20492;-69
2021/08/05 07:51:03;;;;;;;2.40;2.20;;;20.50;99.90;;;;;;5037122;28;20441;-69
2021/08/05 07:53:30;;;;;;;2.20;2.00;;;20.80;99.90;;;;;;5037081;28;20456;-69
2021/08/05 07:55:57;;;;;;;2.67;2.47;;;21.00;99.90;;;;;;5036656;28;20445;-69
2021/08/05 07:58:24;;;;;;;2.53;2.33;;;21.10;99.90;;;;;;5036936;28;20489;-69
2021/08/05 08:00:52;;;;;;;2.83;2.60;;;21.20;99.90;;;;;;5036920;28;20459;-69
2021/08/05 08:03:19;;;;;;;2.50;2.00;;;21.20;99.90;;;;;;5036919;28;20541;-69
2021/08/05 08:05:45;;;;;;;2.20;1.87;;;21.10;99.90;;;;;;5036338;28;20461;-69
2021/08/05 08:08:14;;;;;;;3.13;2.53;;;21.20;99.90;;;;;;5036726;28;20472;-69
2021/08/05 08:10:41;;;;;;;3.23;2.70;;;21.00;99.90;;;;;;5036761;28;20434;-69
2021/08/05 08:13:08;;;;;;;3.03;2.50;;;20.90;99.90;;;;;;5036701;28;20445;-69
2021/08/05 08:15:34;;;;;;;2.60;2.40;;;20.90;99.90;;;;;;5036490;28;20446;-69
2021/08/05 08:18:03;;;;;;;2.70;2.47;;;20.90;99.90;;;;;;5036463;28;20462;-69
2021/08/05 08:20:31;;;;;;;2.37;2.17;;;20.90;99.90;;;;;;5036302;28;20533;-69
2021/08/05 08:22:58;;;;;;;2.10;1.90;;;21.00;99.90;;;;;;5036524;28;20482;-69
2021/08/05 08:25:25;;;;;;;3.97;2.47;;;20.90;99.90;;;;;;5036186;28;20460;-69
2021/08/05 08:27:51;;;;;;;2.50;2.30;;;20.90;99.90;;;;;;5036123;28;21051;-69
2021/08/05 08:30:18;;;;;;;2.20;1.97;;;20.80;99.90;;;;;;5036283;28;20487;-69
2021/08/05 08:32:47;;;;;;;2.57;2.37;;;20.70;99.90;;;;;;5036208;28;20941;-69
2021/08/05 08:35:15;;;;;;;3.67;2.40;;;20.50;99.90;;;;;;5036098;28;20488;-69
2021/08/05 08:37:42;;;;;;;2.40;2.20;;;20.40;99.90;;;;;;5036043;28;20508;-69
2021/08/05 08:40:11;;;;;;;2.10;2.00;;;20.30;99.90;;;;;;5035907;28;20533;-69
2021/08/05 08:42:39;;;;;;;2.43;2.23;;;20.30;99.90;;;;;;5036177;28;20444;-69
2021/08/05 08:45:07;;;;;;;2.27;2.07;;;20.40;99.90;;;;;;5035884;28;20449;-69
2021/08/05 08:47:36;;;;;;;2.97;2.50;;;20.40;99.90;;;;;;5035883;28;20475;-69
2021/08/05 08:50:04;;;;;;;2.60;2.40;;;20.30;99.90;;;;;;5036020;28;20914;-69
2021/08/05 08:52:34;;;;;;;2.73;2.53;;;20.30;99.90;;;;;;5034731;28;20792;-69
2021/08/05 08:55:03;;;;;;;2.20;2.00;;;20.30;99.90;;;;;;5035757;28;20484;-69
2021/08/05 08:57:31;;;;;;;1.90;1.80;;;20.30;99.90;;;;;;5035761;28;20469;-69
2021/08/05 08:59:59;;;;;;;2.47;2.03;;;20.50;99.90;;;;;;5035899;28;20447;-69
2021/08/05 09:02:26;;;;;;;3.00;2.13;;;20.70;99.90;;;;;;5035755;28;20445;-69
2021/08/05 09:04:54;;;;;;;2.63;2.30;;;20.80;99.90;;;;;;5035446;28;20925;-69
2021/08/05 09:07:24;;;;;;;2.43;2.23;;;21.00;99.90;;;;;;5035338;28;20447;-69
2021/08/05 09:09:52;;;;;;;2.10;2.00;;;21.20;99.90;;;;;;5035350;28;20474;-69
2021/08/05 09:12:20;;;;;;;2.20;2.00;;;21.30;99.90;;;;;;5035621;28;20449;-69
2021/08/05 09:14:48;;;;;;;2.70;2.20;;;22.30;99.90;;;;;;5035384;28;20446;-69
2021/08/05 09:17:21;;;;;;;1.77;1.67;;;24.80;99.90;;;;;;5035240;28;20465;-69
2021/08/05 09:19:50;;;;;;;1.70;1.60;;;27.20;94.30;;;;;;5035230;28;20520;-69
2021/08/05 09:22:35;;;;;;;2.13;2.03;;;29.40;89.60;;;;;;5035461;28;20500;-70
2021/08/05 09:25:29;;;;;;;2.47;1.70;;;31.50;77.00;;;;;;5035253;28;20483;-70
2021/08/05 09:27:58;;;;;;;1.73;1.63;;;32.40;64.40;;;;;;5035296;28;20545;-70
2021/08/05 09:30:37;;;;;;;2.03;1.83;;;31.30;62.70;;;;;;5035187;28;20485;-70
2021/08/05 09:33:06;;;;;;;2.00;1.90;;;29.40;64.90;;;;;;5035278;28;20494;-69
2021/08/05 09:35:33;;;;;;;1.97;1.83;;;28.30;72.50;;;;;;5034935;28;20447;-69
2021/08/05 09:38:24;;;;;;;1.80;1.70;;;28.60;73.80;;;;;;5035016;28;20462;-69
2021/08/05 09:41:07;;;;;;;1.70;1.60;;;27.50;77.20;;;;;;5035117;28;20534;-69
2021/08/05 09:43:34;;;;;;;2.00;1.90;;;26.60;80.30;;;;;;5034953;28;20443;-69
2021/08/05 09:46:01;;;;;;;1.80;1.70;;;25.40;85.60;;;;;;5034687;28;20446;-69
2021/08/05 09:48:40;;;;;;;1.93;1.83;;;25.00;92.90;;;;;;5034635;28;20469;-69
2021/08/05 09:51:15;;;;;;;1.80;1.70;;;24.20;91.10;;;;;;5034824;28;20473;-69
2021/08/05 09:54:01;;;;;;;2.13;1.93;;;23.60;93.20;;;;;;5034825;28;20440;-69
2021/08/05 09:56:31;;;;;;;1.73;1.63;;;24.20;93.00;;;;;;5034627;28;20446;-69
2021/08/05 09:59:09;;;;;;;2.27;2.07;;;26.00;90.30;;;;;;5034459;28;20464;-69
2021/08/05 10:01:37;;;;;;;1.53;1.43;;;28.00;80.40;;;;;;5034470;28;20966;-70
2021/08/05 10:04:25;;;;;;;1.80;1.70;;;29.80;71.10;;;;;;5034333;28;20800;-70
2021/08/05 10:07:06;;;;;;;1.53;1.43;;;30.20;71.90;;;;;;5034452;28;20444;-70
2021/08/05 10:09:34;;;;;;;1.77;1.67;;;30.80;65.30;;;;;;5034367;28;20487;-70
2021/08/05 10:12:13;;;;;;;1.47;1.37;;;31.00;61.90;;;;;;5034566;28;20933;-70
2021/08/05 10:14:40;;;;;;;1.50;1.40;;;30.40;63.50;;;;;;5034461;28;20521;-70
2021/08/05 10:17:09;;;;;;;1.63;1.53;;;30.10;62.20;;;;;;5033956;28;20810;-70
2021/08/05 10:19:39;;;;;;;1.67;1.57;;;29.40;63.60;;;;;;5034407;28;20445;-69
2021/08/05 10:22:07;;;;;;;1.40;1.30;;;28.50;65.30;;;;;;5034296;28;20834;-69
2021/08/05 10:24:36;;;;;;;1.50;1.40;;;28.40;68.60;;;;;;5034238;28;20444;-69
2021/08/05 10:27:04;;;;;;;1.53;1.43;;;27.20;66.00;;;;;;5034156;28;20439;-69
2021/08/05 10:29:34;;;;;;;1.50;1.40;;;26.40;75.20;;;;;;5033736;28;20486;-69
2021/08/05 10:32:03;;;;;;;1.63;1.53;;;25.80;77.90;;;;;;5034050;28;20782;-69
2021/08/05 10:34:34;;;;;;;1.70;1.60;;;25.40;78.50;;;;;;5034028;28;20530;-69
2021/08/05 10:37:02;;;;;;;2.10;2.00;;;25.20;79.80;;;;;;5033912;28;20450;-69
2021/08/05 10:39:29;;;;;;;1.57;1.47;;;24.70;84.50;;;;;;5033663;28;20466;-69
2021/08/05 10:41:58;;;;;;;1.93;1.60;;;24.30;90.90;;;;;;5033986;28;20531;-69
2021/08/05 10:44:26;;;;;;;1.63;1.53;;;24.10;91.00;;;;;;5033814;28;20956;-69
2021/08/05 10:46:55;;;;;;;1.67;1.57;;;23.80;86.50;;;;;;5033616;28;20445;-69
2021/08/05 10:49:23;;;;;;;1.60;1.50;;;24.30;91.40;;;;;;5033793;28;20466;-69
2021/08/05 10:51:50;;;;;;;1.30;1.20;;;25.10;83.30;;;;;;5033839;28;20529;-69
2021/08/05 10:54:53;;;;;;;1.40;1.30;;;26.40;84.50;;;;;;5033623;28;20458;-69
2021/08/05 10:57:21;;;;;;;2.40;2.20;;;28.20;76.10;;;;;;5033696;28;20442;-69
2021/08/05 10:59:59;;;;;;;1.13;1.03;;;28.90;70.60;;;;;;5033706;28;20528;-70
2021/08/05 11:02:48;;;;;;;1.10;1.00;;;29.40;67.20;;;;;;5034141;28;20534;-70
2021/08/05 11:05:45;;;;;;;1.20;1.20;;;29.30;66.00;;;;;;5033490;28;20457;-70
2021/08/05 11:08:26;;;;;;;1.33;1.23;;;28.50;67.00;;;;;;5033669;28;20469;-70
2021/08/05 11:11:26;;;;;;;1.13;1.13;;;28.30;66.70;;;;;;5033584;28;20876;-69
2021/08/05 11:14:27;;;;;;;1.40;1.30;;;27.30;69.60;;;;;;5030345;28;20522;-69
2021/08/05 11:17:04;;;;;;;1.13;1.03;;;26.90;72.70;;;;;;5032369;28;20496;-69
2021/08/05 11:19:33;;;;;;;0.93;0.90;;;26.40;77.50;;;;;;5033464;28;20470;-69
2021/08/05 11:22:49;;;;;;;1.27;1.27;;;25.90;76.00;;;;;;5033381;28;20451;-69
2021/08/05 11:25:16;;;;;;;1.50;1.30;;;25.50;78.60;;;;;;5033261;28;20469;-69
2021/08/05 11:27:46;;;;;;;1.63;1.37;;;25.20;81.80;;;;;;5033428;28;20478;-69
2021/08/05 11:30:45;;;;;;;1.50;1.20;;;25.30;84.50;;;;;;5033481;28;20467;-69
2021/08/05 11:34:07;;;;;;;1.20;1.20;;;25.30;81.40;;;;;;5033422;28;20532;-69
2021/08/05 11:36:40;;;;;;;1.30;1.20;;;25.40;83.30;;;;;;5033256;28;20453;-69
2021/08/05 11:39:27;;;;;;;1.17;1.07;;;25.40;83.50;;;;;;5033119;28;20473;-69
2021/08/05 11:42:00;;;;;;;1.00;0.90;;;25.60;81.40;;;;;;5033338;28;20435;-69
2021/08/05 11:44:33;;;;;;;1.30;1.20;;;25.50;80.80;;;;;;5033300;28;20874;-69
2021/08/05 11:47:19;;;;;;;1.37;1.20;;;25.40;85.80;;;;;;5033124;28;20443;-69
2021/08/05 11:49:47;;;;;;;2.23;1.23;;;25.10;87.80;;;;;;5033228;28;20484;-69
2021/08/05 11:52:18;;;;;;;1.40;1.30;;;25.10;83.90;;;;;;5033231;28;20443;-69
2021/08/05 11:54:48;;;;;;;1.57;1.37;;;24.80;83.30;;;;;;5033062;28;20445;-69
2021/08/05 11:57:17;;;;;;;1.53;1.43;;;24.30;84.00;;;;;;5033017;28;20935;-69
2021/08/05 11:59:45;;;;;;;1.53;1.27;;;23.80;87.60;;;;;;5032859;28;20956;-69
2021/08/05 12:02:14;;;;;;;1.57;1.47;;;23.40;89.50;;;;;;5033097;28;20484;-69
2021/08/05 12:04:41;;;;;;;1.97;1.50;;;23.20;91.50;;;;;;5033116;28;20447;-69
2021/08/05 12:07:21;;;;;;;1.77;1.67;;;23.20;90.80;;;;;;5032949;28;20453;-69
2021/08/05 12:09:53;;;;;;;1.50;1.40;;;23.30;91.70;;;;;;5032742;28;20494;-69
2021/08/05 12:12:20;;;;;;;1.43;1.33;;;23.40;92.10;;;;;;5032952;28;20444;-69
2021/08/05 12:14:50;;;;;;;1.80;1.70;;;23.30;91.20;;;;;;5032822;28;20458;-69
2021/08/05 12:17:29;;;;;;;1.83;1.73;;;23.50;92.60;;;;;;5032700;28;20547;-69
2021/08/05 12:19:56;;;;;;;1.40;1.30;;;23.70;90.80;;;;;;5033114;28;20428;-69
2021/08/05 12:22:30;;;;;;;1.73;1.63;;;23.80;91.20;;;;;;5032823;28;20535;-69
2021/08/05 12:25:01;;;;;;;1.50;1.40;;;23.80;91.20;;;;;;5032721;28;20535;-69
2021/08/05 12:27:29;;;;;;;1.87;1.63;;;23.80;89.70;;;;;;5034476;28;20819;-69
2021/08/05 12:30:00;;;;;;;1.40;1.30;;;23.80;90.70;;;;;;5036134;28;20481;-69
2021/08/05 12:32:27;;;;;;;1.50;1.40;;;24.00;91.60;;;;;;5036445;28;20537;-69
2021/08/05 12:34:54;;;;;;;1.70;1.60;;;24.10;90.90;;;;;;5036138;28;20441;-69
2021/08/05 12:37:21;;;;;;;1.50;1.40;;;24.10;91.10;;;;;;5036223;28;20447;-69
2021/08/05 12:39:50;;;;;;;1.73;1.63;;;24.10;90.20;;;;;;5036238;28;20540;-69
2021/08/05 12:42:18;;;;;;;1.50;1.40;;;24.10;90.50;;;;;;5036025;28;20453;-69
2021/08/05 12:44:46;;;;;;;1.63;1.53;;;24.10;91.50;;;;;;5035896;28;20861;-70
2021/08/05 12:47:14;;;;;;;1.60;1.50;;;24.00;92.00;;;;;;5036126;28;20459;-69
2021/08/05 12:49:44;;;;;;;1.30;1.20;;;23.70;94.00;;;;;;5036140;28;20527;-69
2021/08/05 12:52:15;;;;;;;1.27;1.20;;;23.50;95.20;;;;;;5036006;28;20953;-69
2021/08/05 12:54:41;;;;;;;1.40;1.30;;;23.40;91.10;;;;;;5035769;28;20927;-69
2021/08/05 12:57:14;;;;;;;1.60;1.50;;;23.30;92.80;;;;;;5035499;28;20454;-69
2021/08/05 12:59:46;;;;;;;1.37;1.27;;;23.20;94.90;;;;;;5035640;28;20491;-69
2021/08/05 13:02:14;;;;;;;1.07;1.07;;;23.20;94.10;;;;;;5035639;28;20455;-69